createdAt,value
2022-11-24T00:02:32.794Z,9.52
2022-11-24T00:05:39.169Z,7.57
2022-11-24T00:08:43.480Z,10.73
2022-11-24T00:11:45.865Z,8.93
2022-11-24T00:14:47.984Z,10.00
2022-11-24T00:17:49.968Z,9.55
2022-11-24T00:20:55.071Z,7.57
2022-11-24T00:23:57.580Z,8.88
2022-11-24T00:26:59.551Z,9.93
2022-11-24T00:30:01.646Z,6.20
2022-11-24T00:33:03.680Z,10.52
2022-11-24T00:36:06.044Z,6.60
2022-11-24T00:39:12.239Z,8.50
2022-11-24T00:42:14.491Z,8.07
2022-11-24T00:45:16.507Z,8.18
2022-11-24T00:48:18.488Z,8.02
2022-11-24T00:51:22.640Z,9.13
2022-11-24T00:54:24.713Z,7.50
2022-11-24T00:57:26.700Z,5.32
2022-11-24T01:00:28.709Z,8.00
2022-11-24T01:03:31.087Z,8.27
2022-11-24T01:06:33.230Z,7.40
2022-11-24T01:09:35.205Z,6.75
2022-11-24T01:12:38.110Z,5.95
2022-11-24T01:15:40.725Z,6.03
2022-11-24T01:18:42.864Z,6.25
2022-11-24T01:21:45.007Z,5.40
2022-11-24T01:24:47.033Z,5.13
2022-11-24T01:27:49.079Z,6.30
2022-11-24T01:31:01.996Z,4.32
2022-11-24T01:34:05.266Z,5.50
2022-11-24T01:37:07.321Z,4.82
2022-11-24T01:40:10.083Z,5.20
2022-11-24T01:43:20.431Z,5.07
2022-11-24T01:46:41.547Z,4.70
2022-11-24T01:49:47.088Z,4.43
2022-11-24T01:52:56.746Z,4.80
2022-11-24T01:55:59.231Z,3.60
2022-11-24T01:59:05.793Z,3.17
2022-11-24T02:02:08.892Z,3.08
2022-11-24T02:05:28.484Z,3.13
2022-11-24T02:08:41.804Z,2.78
2022-11-24T02:11:44.876Z,3.05
2022-11-24T02:14:46.990Z,2.10
2022-11-24T02:17:48.987Z,2.47
2022-11-24T02:20:51.024Z,3.50
2022-11-24T02:24:21.923Z,2.90
2022-11-24T02:27:23.906Z,1.98
2022-11-24T02:30:26.053Z,2.17
2022-11-24T02:33:28.384Z,2.00
2022-11-24T02:36:30.707Z,1.60
2022-11-24T02:39:32.744Z,1.88
2022-11-24T02:42:44.549Z,1.20
2022-11-24T02:45:46.892Z,1.60
2022-11-24T02:48:48.912Z,1.30
2022-11-24T02:51:50.950Z,1.35
2022-11-24T02:54:52.915Z,1.65
2022-11-24T02:57:54.949Z,1.80
2022-11-24T03:00:58.073Z,3.65
2022-11-24T03:04:01.264Z,2.78
2022-11-24T03:07:03.313Z,3.70
2022-11-24T03:10:06.038Z,4.07
2022-11-24T03:13:08.750Z,2.72
2022-11-24T03:16:11.745Z,2.93
2022-11-24T03:19:13.775Z,3.13
2022-11-24T03:22:15.996Z,2.47
2022-11-24T03:25:18.546Z,2.60
2022-11-24T03:28:20.549Z,3.35
2022-11-24T03:31:23.522Z,3.42
2022-11-24T03:34:25.576Z,3.85
2022-11-24T03:37:28.293Z,3.22
2022-11-24T03:40:30.412Z,2.78
2022-11-24T03:43:32.737Z,3.30
2022-11-24T03:46:35.271Z,3.63
2022-11-24T03:49:37.265Z,3.30
2022-11-24T03:52:39.402Z,3.63
2022-11-24T03:55:43.708Z,3.97
2022-11-24T03:58:45.661Z,3.20
2022-11-24T04:01:47.714Z,3.72
2022-11-24T04:04:52.636Z,3.28
2022-11-24T04:07:57.728Z,6.32
2022-11-24T04:10:59.828Z,5.65
2022-11-24T04:14:01.831Z,5.38
2022-11-24T04:17:04.635Z,4.75
2022-11-24T04:20:07.994Z,3.85
2022-11-24T04:23:11.216Z,5.85
2022-11-24T04:26:13.944Z,4.30
2022-11-24T04:29:15.966Z,4.40
2022-11-24T04:32:18.166Z,5.43
2022-11-24T04:35:20.247Z,4.45
2022-11-24T04:39:23.424Z,5.38
2022-11-24T04:41:44.138Z,6.85
2022-11-24T04:44:46.206Z,5.72
2022-11-24T04:47:48.203Z,6.32
2022-11-24T04:50:50.258Z,5.10
2022-11-24T04:53:52.340Z,5.32
2022-11-24T04:56:54.341Z,5.70
2022-11-24T04:59:56.568Z,4.82
2022-11-24T05:02:58.697Z,5.68
2022-11-24T05:06:00.776Z,5.15
2022-11-24T05:09:02.845Z,6.70
2022-11-24T05:12:05.283Z,5.95
2022-11-24T05:15:13.027Z,7.10
2022-11-24T05:18:16.968Z,7.72
2022-11-24T05:21:19.119Z,7.47
2022-11-24T05:24:21.323Z,9.50
2022-11-24T05:27:23.594Z,6.00
2022-11-24T05:30:25.598Z,5.95
2022-11-24T05:33:28.841Z,8.45
2022-11-24T05:36:49.297Z,5.30
2022-11-24T05:39:51.426Z,5.93
2022-11-24T05:42:53.459Z,6.78
2022-11-24T05:45:55.476Z,6.25
2022-11-24T05:48:57.441Z,6.25
2022-11-24T05:55:05.515Z,5.47
2022-11-24T05:58:10.024Z,5.05
2022-11-24T06:01:12.039Z,4.90
2022-11-24T06:04:14.636Z,5.75
2022-11-24T06:07:17.379Z,7.47
2022-11-24T06:10:22.180Z,6.22
2022-11-24T06:13:24.207Z,6.68
2022-11-24T06:16:26.678Z,6.13
2022-11-24T06:19:31.482Z,5.40
2022-11-24T06:22:34.097Z,5.38
2022-11-24T06:25:36.135Z,6.15
2022-11-24T06:28:38.188Z,6.38
2022-11-24T06:31:40.404Z,6.50
2022-11-24T06:34:43.124Z,6.85
2022-11-24T06:37:46.001Z,5.85
2022-11-24T06:40:48.015Z,7.78
2022-11-24T06:43:51.250Z,7.97
2022-11-24T06:46:53.473Z,7.53
2022-11-24T06:49:55.405Z,6.88
2022-11-24T06:52:57.934Z,6.90
2022-11-24T06:56:00.761Z,6.40
2022-11-24T06:59:03.318Z,7.85
2022-11-24T07:02:06.478Z,6.93
2022-11-24T07:05:08.664Z,5.10
2022-11-24T07:08:16.145Z,6.65
2022-11-24T07:11:22.618Z,7.68
2022-11-24T07:14:24.718Z,5.45
2022-11-24T07:17:27.033Z,8.05
2022-11-24T07:20:29.178Z,8.52
2022-11-24T07:23:31.550Z,7.90
2022-11-24T07:26:37.423Z,6.53
2022-11-24T07:29:39.612Z,6.13
2022-11-24T07:32:41.626Z,8.10
2022-11-24T07:35:43.696Z,8.15
2022-11-24T07:38:46.099Z,6.00
2022-11-24T07:41:48.259Z,6.60
2022-11-24T07:44:50.337Z,5.65
2022-11-24T07:47:52.428Z,7.72
2022-11-24T07:50:56.223Z,6.65
2022-11-24T07:53:58.527Z,8.35
2022-11-24T07:57:01.392Z,7.43
2022-11-24T08:00:06.103Z,5.68
2022-11-24T08:03:08.103Z,6.38
2022-11-24T08:06:30.128Z,7.05
2022-11-24T08:09:32.370Z,6.60
2022-11-24T08:12:34.515Z,10.27
2022-11-24T08:15:36.484Z,8.30
2022-11-24T08:18:39.585Z,6.25
2022-11-24T08:21:41.592Z,6.18
2022-11-24T08:24:47.250Z,6.63
2022-11-24T08:27:49.291Z,9.35
2022-11-24T08:30:52.095Z,5.68
2022-11-24T08:33:56.216Z,6.78
2022-11-24T08:36:58.314Z,7.47
2022-11-24T08:40:00.678Z,5.55
2022-11-24T08:43:03.016Z,6.72
2022-11-24T08:46:08.382Z,6.45
2022-11-24T08:49:11.539Z,7.70
2022-11-24T08:52:14.723Z,7.53
2022-11-24T08:55:17.041Z,4.93
2022-11-24T08:58:19.481Z,8.63
2022-11-24T09:01:22.567Z,6.32
2022-11-24T09:04:24.728Z,7.25
2022-11-24T09:07:26.963Z,7.00
2022-11-24T09:10:28.940Z,8.45
2022-11-24T09:13:32.314Z,6.40
2022-11-24T09:16:34.424Z,10.60
2022-11-24T09:19:36.698Z,7.13
2022-11-24T09:22:40.263Z,5.15
2022-11-24T09:25:42.341Z,5.40
2022-11-24T09:28:45.907Z,5.88
2022-11-24T09:31:47.947Z,9.70
2022-11-24T09:34:52.779Z,5.53
2022-11-24T09:37:54.896Z,4.85
2022-11-24T09:41:08.144Z,9.50
2022-11-24T09:44:35.105Z,7.63
2022-11-24T09:47:55.043Z,5.63
2022-11-24T09:51:00.224Z,5.00
2022-11-24T09:54:11.483Z,5.55
2022-11-24T09:57:15.985Z,6.90
2022-11-24T10:00:18.440Z,4.88
2022-11-24T10:03:33.051Z,6.43
2022-11-24T10:06:48.076Z,4.47
2022-11-24T10:10:19.796Z,5.25
2022-11-24T10:13:46.148Z,5.57
2022-11-24T10:17:17.179Z,5.50
2022-11-24T10:20:49.031Z,5.13
2022-11-24T10:23:57.371Z,6.28
2022-11-24T10:27:38.972Z,6.03
2022-11-24T10:30:41.071Z,4.00
2022-11-24T10:33:45.994Z,5.43
2022-11-24T10:37:09.231Z,6.35
2022-11-24T10:40:48.713Z,4.78
2022-11-24T10:43:44.630Z,5.78
2022-11-24T10:46:46.837Z,5.47
2022-11-24T10:50:17.873Z,4.65
2022-11-24T10:53:30.899Z,5.47
2022-11-24T10:56:40.359Z,5.10
2022-11-24T10:59:42.464Z,6.60
2022-11-24T11:02:45.990Z,6.47
2022-11-24T11:05:56.044Z,6.43
2022-11-24T11:09:07.168Z,6.03
2022-11-24T11:12:36.275Z,4.82
2022-11-24T11:15:33.358Z,6.35
2022-11-24T11:18:36.588Z,5.15
2022-11-24T11:21:39.504Z,4.28
2022-11-24T11:24:47.266Z,7.32
2022-11-24T11:27:50.015Z,7.43
2022-11-24T11:31:22.052Z,6.15
2022-11-24T11:34:30.315Z,5.68
2022-11-24T11:37:34.008Z,5.05
2022-11-24T11:40:39.391Z,4.80
2022-11-24T11:43:41.820Z,5.97
2022-11-24T11:46:45.218Z,5.78
2022-11-24T11:49:49.531Z,3.87
2022-11-24T11:53:12.985Z,3.85
2022-11-24T11:56:30.280Z,4.25
2022-11-24T11:59:45.721Z,3.00
2022-11-24T12:03:09.621Z,1.40
2022-11-24T12:06:25.460Z,1.83
2022-11-24T12:10:03.207Z,2.10
2022-11-24T12:13:26.306Z,1.60
2022-11-24T12:16:48.412Z,2.70
2022-11-24T12:20:09.276Z,2.47
2022-11-24T12:23:32.094Z,2.47
2022-11-24T12:27:05.917Z,1.90
2022-11-24T12:30:28.741Z,2.22
2022-11-24T12:33:50.972Z,2.80
2022-11-24T12:37:12.358Z,2.45
2022-11-24T12:40:47.364Z,3.40
2022-11-24T12:43:53.552Z,2.85
2022-11-24T12:47:28.983Z,3.90
2022-11-24T12:50:35.541Z,4.70
2022-11-24T12:53:38.862Z,3.92
2022-11-24T12:56:43.510Z,6.55
2022-11-24T13:00:09.065Z,3.92
2022-11-24T13:03:38.576Z,3.97
2022-11-24T13:06:50.779Z,3.80
2022-11-24T13:10:40.089Z,1.98
2022-11-24T13:14:06.906Z,2.30
2022-11-24T13:17:50.226Z,2.55
2022-11-24T13:20:57.311Z,3.47
2022-11-24T13:24:23.472Z,3.47
2022-11-24T13:27:39.778Z,3.75
2022-11-24T13:30:44.392Z,3.67
2022-11-24T13:33:47.566Z,3.05
2022-11-24T13:36:56.826Z,1.95
2022-11-24T13:40:20.808Z,2.00
2022-11-24T13:43:23.405Z,1.50
2022-11-24T13:47:05.734Z,1.45
2022-11-24T13:50:10.022Z,1.40
2022-11-24T13:53:40.956Z,1.45
2022-11-24T13:56:44.558Z,1.83
2022-11-24T13:59:50.817Z,1.65
2022-11-24T14:02:56.464Z,1.35
2022-11-24T14:05:59.286Z,2.20
2022-11-24T14:09:34.117Z,1.90
2022-11-24T14:12:36.091Z,1.50
2022-11-24T14:15:38.156Z,2.30
2022-11-24T14:18:42.543Z,1.40
2022-11-24T14:24:53.816Z,1.40
2022-11-24T14:27:56.457Z,1.33
2022-11-24T14:31:26.142Z,1.33
2022-11-24T14:34:30.493Z,1.50
2022-11-24T14:40:45.881Z,2.25
2022-11-24T14:43:48.032Z,1.92
2022-11-24T14:47:00.972Z,1.40
2022-11-24T14:50:19.106Z,1.63
2022-11-24T14:53:26.220Z,2.55
2022-11-24T14:56:32.765Z,2.88
2022-11-24T14:59:36.509Z,2.40
2022-11-24T15:02:41.460Z,2.20
2022-11-24T15:05:57.292Z,1.95
2022-11-24T15:08:59.383Z,2.45
2022-11-24T15:12:16.638Z,2.38
2022-11-24T15:15:20.571Z,2.47
2022-11-24T15:18:30.473Z,2.45
2022-11-24T15:21:37.129Z,2.63
2022-11-24T15:24:51.188Z,2.80
2022-11-24T15:27:54.006Z,3.20
2022-11-24T15:31:25.502Z,4.57
2022-11-24T15:34:27.626Z,2.67
2022-11-24T15:37:34.054Z,4.03
2022-11-24T15:40:39.883Z,2.63
2022-11-24T15:43:42.163Z,3.28
2022-11-24T15:46:44.310Z,2.42
2022-11-24T15:49:46.407Z,2.53
2022-11-24T15:52:49.152Z,3.00
2022-11-24T15:55:52.297Z,2.45
2022-11-24T15:58:55.236Z,3.33
2022-11-24T16:01:57.261Z,2.97
2022-11-24T16:04:59.321Z,2.55
2022-11-24T16:08:01.419Z,3.15
2022-11-24T16:11:03.853Z,3.85
2022-11-24T16:14:05.948Z,3.42
2022-11-24T16:17:08.010Z,4.20
2022-11-24T16:20:10.543Z,4.30
2022-11-24T16:23:12.783Z,4.18
2022-11-24T16:26:15.006Z,4.35
2022-11-24T16:29:17.076Z,4.50
2022-11-24T16:32:19.177Z,3.58
2022-11-24T16:35:21.372Z,3.60
2022-11-24T16:38:23.424Z,6.78
2022-11-24T16:41:27.104Z,3.20
2022-11-24T16:44:29.175Z,3.67
2022-11-24T16:47:31.193Z,2.63
2022-11-24T16:50:33.171Z,4.78
2022-11-24T16:53:35.232Z,3.92
2022-11-24T16:56:37.372Z,3.58
2022-11-24T16:59:39.556Z,5.55
2022-11-24T17:02:41.599Z,4.28
2022-11-24T17:05:43.754Z,3.33
2022-11-24T17:08:47.256Z,3.70
2022-11-24T17:11:49.318Z,4.57
2022-11-24T17:15:16.426Z,3.85
2022-11-24T17:18:24.389Z,5.10
2022-11-24T17:21:27.969Z,3.73
2022-11-24T17:24:30.076Z,4.88
2022-11-24T17:27:32.092Z,4.75
2022-11-24T17:30:34.075Z,4.63
2022-11-24T17:33:36.358Z,3.85
2022-11-24T17:36:39.852Z,4.55
2022-11-24T17:39:42.412Z,4.63
2022-11-24T17:42:45.491Z,6.13
2022-11-24T17:45:54.326Z,5.07
2022-11-24T17:48:57.244Z,4.22
2022-11-24T17:51:59.216Z,5.63
2022-11-24T17:55:02.464Z,3.75
2022-11-24T17:58:04.854Z,4.05
2022-11-24T18:01:07.446Z,3.97
2022-11-24T18:04:09.663Z,4.13
2022-11-24T18:07:11.765Z,5.43
2022-11-24T18:10:13.803Z,4.65
2022-11-24T18:13:34.306Z,5.43
2022-11-24T18:16:38.101Z,5.97
2022-11-24T18:19:40.431Z,5.05
2022-11-24T18:23:04.523Z,5.35
2022-11-24T18:26:06.521Z,6.05
2022-11-24T18:29:09.618Z,5.57
2022-11-24T18:32:11.785Z,9.13
2022-11-24T18:35:13.994Z,8.52
2022-11-24T18:38:16.163Z,8.65
2022-11-24T18:41:18.825Z,6.53
2022-11-24T18:44:20.856Z,7.43
2022-11-24T18:47:23.062Z,5.88
2022-11-24T18:50:25.087Z,7.15
2022-11-24T18:53:27.602Z,7.25
2022-11-24T18:56:30.047Z,8.20
2022-11-24T18:59:32.036Z,6.70
2022-11-24T19:02:34.729Z,7.90
2022-11-24T19:05:36.839Z,8.27
2022-11-24T19:08:39.007Z,7.57
2022-11-24T19:11:43.165Z,6.65
2022-11-24T19:14:45.238Z,4.97
2022-11-24T19:17:47.583Z,6.25
2022-11-24T19:20:49.776Z,6.88
2022-11-24T19:23:51.885Z,3.25
2022-11-24T19:26:54.728Z,3.35
2022-11-24T19:29:56.827Z,7.20
2022-11-24T19:32:59.987Z,6.13
2022-11-24T19:36:04.891Z,4.93
2022-11-24T19:39:07.150Z,3.53
2022-11-24T19:42:09.518Z,4.28
2022-11-24T19:45:11.662Z,5.35
2022-11-24T19:48:13.780Z,4.45
2022-11-24T19:51:18.385Z,4.05
2022-11-24T19:54:20.457Z,5.10
2022-11-24T19:57:22.541Z,3.88
2022-11-24T20:00:27.894Z,4.60
2022-11-24T20:03:32.651Z,10.82
2022-11-24T20:06:37.950Z,7.90
2022-11-24T20:09:40.164Z,7.13
2022-11-24T20:12:42.230Z,4.75
2022-11-24T20:15:44.243Z,5.38
2022-11-24T20:18:47.960Z,7.22
2022-11-24T20:21:50.605Z,6.57
2022-11-24T20:24:52.647Z,4.82
2022-11-24T20:27:55.961Z,4.07
2022-11-24T20:31:06.251Z,5.35
2022-11-24T20:34:09.379Z,5.72
2022-11-24T20:37:13.641Z,6.80
2022-11-24T20:40:15.947Z,7.15
2022-11-24T20:43:17.915Z,5.15
2022-11-24T20:46:26.163Z,5.05
2022-11-24T20:49:28.485Z,5.00
2022-11-24T20:52:30.697Z,4.63
2022-11-24T20:55:34.524Z,4.07
2022-11-24T20:58:37.415Z,4.68
2022-11-24T21:01:42.606Z,5.57
2022-11-24T21:04:44.756Z,6.28
2022-11-24T21:07:46.892Z,5.05
2022-11-24T21:10:56.731Z,5.70
2022-11-24T21:13:59.347Z,4.55
2022-11-24T21:17:01.602Z,6.13
2022-11-24T21:20:03.809Z,6.50
2022-11-24T21:23:05.976Z,6.20
2022-11-24T21:26:14.896Z,6.50
2022-11-24T21:29:21.978Z,5.20
2022-11-24T21:32:24.976Z,5.25
2022-11-24T21:35:27.277Z,7.57
2022-11-24T21:38:29.952Z,5.55
2022-11-24T21:41:33.603Z,3.53
2022-11-24T21:44:37.125Z,5.43
2022-11-24T21:47:39.568Z,4.07
2022-11-24T21:50:41.617Z,4.80
2022-11-24T21:53:46.250Z,5.28
2022-11-24T21:59:50.201Z,4.33
2022-11-24T22:02:54.723Z,3.97
2022-11-24T22:05:58.647Z,3.45
2022-11-24T22:09:00.689Z,4.65
2022-11-24T22:12:02.822Z,5.85
2022-11-24T22:15:05.478Z,4.13
2022-11-24T22:18:07.600Z,4.17
2022-11-24T22:21:30.003Z,5.03
2022-11-24T22:24:32.418Z,4.25
2022-11-24T22:27:34.603Z,4.28
2022-11-24T22:30:36.810Z,4.57
2022-11-24T22:33:38.879Z,3.38
2022-11-24T22:36:40.974Z,5.15
2022-11-24T22:39:43.127Z,4.32
2022-11-24T22:42:46.892Z,4.10
2022-11-24T22:45:48.975Z,4.15
2022-11-24T22:48:55.142Z,5.13
2022-11-24T22:51:57.153Z,3.55
2022-11-24T22:54:59.576Z,4.53
2022-11-24T22:58:01.573Z,5.50
2022-11-24T23:01:09.828Z,5.15
2022-11-24T23:04:12.558Z,4.93
2022-11-24T23:07:14.797Z,5.82
2022-11-24T23:10:17.012Z,4.90
2022-11-24T23:13:19.087Z,4.87
2022-11-24T23:16:22.324Z,5.05
2022-11-24T23:19:24.645Z,5.00
2022-11-24T23:22:26.688Z,6.25
2022-11-24T23:25:30.772Z,8.00
2022-11-24T23:28:33.138Z,5.17
2022-11-24T23:31:35.692Z,5.40
2022-11-24T23:34:38.042Z,4.97
2022-11-24T23:38:06.036Z,5.23
2022-11-24T23:41:10.088Z,5.22
2022-11-24T23:44:14.573Z,7.18
2022-11-24T23:47:18.072Z,5.45
2022-11-24T23:50:20.109Z,4.88
2022-11-24T23:53:22.345Z,5.80
2022-11-24T23:56:32.924Z,5.10
2022-11-24T23:59:38.142Z,5.03
